Time;durP1;ratioP1;P1;durP2;ratioP2;P2;SDS_P1;SDS_P2;PMS_P1;PMS_P2;Temp;Humidity;BMP_temperature;BMP_pressure;BME280_temperature;BME280_humidity;BME280_pressure;Samples;Min_cycle;Max_cycle;Signal;HPM_P1;HPM_P2
2022/12/14 00:02:07;;;;;;;31.30;17.00;;;-2.70;32.10;;;;;;4982952;28;20477;-66
2022/12/14 00:04:35;;;;;;;25.83;17.87;;;-2.70;32.00;;;;;;4982337;28;20499;-65
2022/12/14 00:07:01;;;;;;;32.30;16.90;;;-2.70;32.00;;;;;;4981018;28;20458;-64
2022/12/14 00:09:28;;;;;;;28.90;17.50;;;-2.70;32.00;;;;;;4984423;28;20485;-65
2022/12/14 00:11:55;;;;;;;27.83;17.23;;;-2.60;31.90;;;;;;4982872;28;20475;-65
2022/12/14 00:14:22;;;;;;;31.40;17.63;;;-2.60;31.90;;;;;;4982063;28;20516;-64
2022/12/14 00:16:49;;;;;;;29.87;18.30;;;-2.60;31.80;;;;;;4983932;28;20461;-64
2022/12/14 00:19:15;;;;;;;29.77;17.20;;;-2.60;31.80;;;;;;4985450;28;20472;-64
2022/12/14 00:21:44;;;;;;;31.83;18.00;;;-2.60;31.90;;;;;;4985738;28;20465;-64
2022/12/14 00:24:11;;;;;;;29.10;17.80;;;-2.50;31.80;;;;;;4984849;28;20473;-65
2022/12/14 00:26:38;;;;;;;29.43;17.03;;;-2.50;31.80;;;;;;4985703;28;20461;-65
2022/12/14 00:29:05;;;;;;;25.00;17.20;;;-2.50;31.70;;;;;;4984990;28;20461;-65
2022/12/14 00:31:32;;;;;;;27.13;16.57;;;-2.50;31.60;;;;;;4983617;28;20484;-65
2022/12/14 00:33:59;;;;;;;33.40;18.23;;;-2.50;31.70;;;;;;4982506;28;20467;-65
2022/12/14 00:36:26;;;;;;;25.00;17.10;;;-2.40;31.70;;;;;;4983966;28;21079;-65
2022/12/14 00:38:54;;;;;;;28.47;16.43;;;-2.40;31.80;;;;;;4985774;28;20463;-65
2022/12/14 00:41:21;;;;;;;30.33;18.20;;;-2.40;31.50;;;;;;4982642;28;21055;-65
2022/12/14 00:43:48;;;;;;;29.77;17.83;;;-2.40;31.40;;;;;;4982420;28;20840;-64
2022/12/14 00:46:14;;;;;;;30.23;16.50;;;-2.40;31.30;;;;;;4982797;28;20465;-65
2022/12/14 00:48:42;;;;;;;30.57;19.07;;;-2.40;31.10;;;;;;4985364;28;20457;-65
2022/12/14 00:51:09;;;;;;;27.43;16.77;;;-2.40;31.00;;;;;;4980200;28;20476;-65
2022/12/14 00:53:36;;;;;;;29.67;18.20;;;-2.40;30.90;;;;;;4980326;28;20470;-65
2022/12/14 00:56:08;;;;;;;32.33;18.37;;;-2.50;31.20;;;;;;4977417;28;21000;-65
2022/12/14 00:58:35;;;;;;;34.00;19.87;;;-2.50;31.60;;;;;;4983862;28;20477;-65
2022/12/14 01:01:03;;;;;;;31.33;17.77;;;-2.50;31.60;;;;;;4979168;28;20477;-65
2022/12/14 01:03:30;;;;;;;26.97;17.70;;;-2.50;31.90;;;;;;4984050;28;20469;-65
2022/12/14 01:05:57;;;;;;;32.17;18.37;;;-2.60;32.00;;;;;;4976371;28;20465;-65
2022/12/14 01:08:24;;;;;;;29.97;18.10;;;-2.60;32.00;;;;;;4985788;28;20472;-65
2022/12/14 01:10:51;;;;;;;32.57;20.50;;;-2.60;32.10;;;;;;4979068;28;20572;-65
2022/12/14 01:13:19;;;;;;;33.50;18.50;;;-2.60;32.30;;;;;;4985745;28;20457;-65
2022/12/14 01:15:46;;;;;;;29.90;16.87;;;-2.60;32.10;;;;;;4980525;28;20488;-65
2022/12/14 01:18:12;;;;;;;27.40;16.70;;;-2.60;32.20;;;;;;4982110;28;20461;-65
2022/12/14 01:20:39;;;;;;;30.10;18.77;;;-2.60;32.10;;;;;;4984647;28;20476;-64
2022/12/14 01:23:06;;;;;;;30.03;18.10;;;-2.50;32.20;;;;;;4983001;28;20480;-64
2022/12/14 01:25:33;;;;;;;27.93;17.33;;;-2.60;32.20;;;;;;4984293;28;20465;-65
2022/12/14 01:28:00;;;;;;;30.73;18.10;;;-2.20;32.40;;;;;;4982819;28;20461;-64
2022/12/14 01:30:28;;;;;;;30.93;17.80;;;-2.60;32.20;;;;;;4983442;28;20508;-65
2022/12/14 01:32:55;;;;;;;27.07;16.60;;;-2.50;32.10;;;;;;4977679;28;20473;-64
2022/12/14 01:35:21;;;;;;;31.73;17.73;;;-2.60;32.20;;;;;;4982447;28;20500;-65
2022/12/14 01:37:48;;;;;;;29.20;18.27;;;-2.60;32.30;;;;;;4983786;28;20468;-65
2022/12/14 01:40:15;;;;;;;32.03;18.23;;;-2.60;32.30;;;;;;4985224;28;20484;-65
2022/12/14 01:42:42;;;;;;;27.43;17.87;;;-2.60;32.40;;;;;;4984984;28;20460;-65
2022/12/14 01:45:18;;;;;;;33.03;18.90;;;-2.50;32.50;;;;;;4984628;28;20481;-65
2022/12/14 01:47:50;;;;;;;32.50;18.57;;;-2.50;32.60;;;;;;4983350;28;20467;-65
2022/12/14 01:50:25;;;;;;;27.90;17.00;;;-2.50;32.40;;;;;;4984272;28;20484;-64
2022/12/14 01:52:55;;;;;;;28.37;16.90;;;-2.50;32.40;;;;;;4981932;28;20462;-64
2022/12/14 01:55:24;;;;;;;27.43;17.30;;;-2.50;32.50;;;;;;4983431;28;20483;-64
2022/12/14 01:57:54;;;;;;;31.13;18.77;;;-2.40;32.30;;;;;;4980645;28;20465;-65
2022/12/14 02:00:22;;;;;;;31.23;20.00;;;-2.40;32.40;;;;;;4982403;28;20484;-65
2022/12/14 02:02:55;;;;;;;33.10;18.80;;;-2.30;32.20;;;;;;4981206;28;20469;-65
2022/12/14 02:05:24;;;;;;;29.50;18.07;;;-2.40;32.00;;;;;;4982590;28;20457;-64
2022/12/14 02:07:54;;;;;;;30.23;17.50;;;-2.30;32.00;;;;;;4984911;28;20457;-64
2022/12/14 02:10:22;;;;;;;31.17;17.47;;;-2.30;32.10;;;;;;4981228;28;21083;-64
2022/12/14 02:12:54;;;;;;;33.10;18.37;;;-2.40;32.10;;;;;;4982202;28;20966;-65
2022/12/14 02:15:21;;;;;;;29.93;18.83;;;-2.40;32.20;;;;;;4982148;28;20849;-64
2022/12/14 02:17:50;;;;;;;32.93;19.30;;;-2.40;32.30;;;;;;4980252;28;20621;-64
2022/12/14 02:20:17;;;;;;;28.03;18.30;;;-2.40;32.40;;;;;;4983531;28;22956;-65
2022/12/14 02:23:07;;;;;;;31.30;17.40;;;-2.40;32.30;;;;;;4984948;28;20551;-65
2022/12/14 02:26:05;;;;;;;29.00;17.07;;;-2.40;32.40;;;;;;4979038;28;21047;-65
2022/12/14 02:29:04;;;;;;;29.47;18.63;;;-2.40;32.60;;;;;;4989505;28;20996;-64
2022/12/14 02:31:40;;;;;;;28.70;17.10;;;-2.50;32.70;;;;;;4974459;28;21012;-65
2022/12/14 02:34:14;;;;;;;31.13;18.90;;;-2.40;32.60;;;;;;4987761;28;20464;-65
2022/12/14 02:36:56;;;;;;;27.40;16.50;;;-2.40;32.40;;;;;;4988807;28;21063;-64
2022/12/14 02:39:32;;;;;;;32.77;17.80;;;-2.40;32.50;;;;;;4982789;28;20463;-65
2022/12/14 02:42:05;;;;;;;32.23;18.67;;;-2.50;32.60;;;;;;4989507;28;20490;-65
2022/12/14 02:44:38;;;;;;;32.97;18.83;;;-2.50;32.70;;;;;;4984157;28;20472;-65
2022/12/14 02:47:11;;;;;;;33.30;19.13;;;-2.50;32.90;;;;;;4994070;28;20462;-65
2022/12/14 02:49:52;;;;;;;30.33;18.53;;;-2.50;33.10;;;;;;4986501;28;20488;-65
2022/12/14 02:52:26;;;;;;;33.90;18.90;;;-2.50;33.10;;;;;;4990212;28;20467;-65
2022/12/14 02:54:58;;;;;;;31.00;18.00;;;-2.50;33.00;;;;;;4987180;28;20464;-65
2022/12/14 02:57:29;;;;;;;32.13;19.00;;;-2.50;33.00;;;;;;4990720;28;20467;-65
2022/12/14 03:00:00;;;;;;;30.30;19.03;;;-2.50;33.10;;;;;;4987703;28;20956;-65
2022/12/14 03:02:29;;;;;;;33.23;18.70;;;-2.50;33.20;;;;;;4980203;28;20468;-65
2022/12/14 03:04:56;;;;;;;31.10;18.03;;;-2.40;33.20;;;;;;4989400;28;20460;-65
2022/12/14 03:07:31;;;;;;;32.30;18.97;;;-2.40;33.20;;;;;;4989005;28;20464;-65
2022/12/14 03:10:01;;;;;;;30.90;18.50;;;-2.40;33.10;;;;;;4984000;28;20472;-65
2022/12/14 03:12:28;;;;;;;32.67;20.80;;;-2.40;33.10;;;;;;4988895;28;20536;-65
2022/12/14 03:14:57;;;;;;;32.10;18.57;;;-2.40;33.10;;;;;;4990410;28;20490;-65
2022/12/14 03:17:28;;;;;;;31.33;19.40;;;-2.30;33.10;;;;;;4988706;28;20456;-65
2022/12/14 03:20:00;;;;;;;34.40;19.47;;;-2.30;33.10;;;;;;4991493;28;20602;-65
2022/12/14 03:22:32;;;;;;;34.10;18.90;;;-2.30;33.10;;;;;;4984464;28;20471;-65
2022/12/14 03:25:02;;;;;;;31.20;19.70;;;-2.20;33.70;;;;;;4988012;28;20475;-65
2022/12/14 03:27:33;;;;;;;32.13;17.77;;;-2.20;33.10;;;;;;4990789;28;20460;-65
2022/12/14 03:30:06;;;;;;;31.23;19.53;;;-2.20;33.00;;;;;;4989980;28;20496;-66
2022/12/14 03:32:35;;;;;;;34.20;19.50;;;-2.20;33.00;;;;;;4987360;28;20499;-66
2022/12/14 03:35:08;;;;;;;30.57;18.43;;;-2.20;33.10;;;;;;4987886;28;20464;-66
2022/12/14 03:37:40;;;;;;;30.17;19.40;;;-2.20;33.10;;;;;;4981082;28;20467;-65
2022/12/14 03:40:10;;;;;;;30.93;20.30;;;-2.10;33.20;;;;;;4985574;28;20484;-65
2022/12/14 03:42:43;;;;;;;30.70;19.77;;;-2.10;33.20;;;;;;4986521;28;20468;-65
2022/12/14 03:45:17;;;;;;;28.33;18.47;;;-2.00;33.20;;;;;;4985544;28;20544;-65
2022/12/14 03:47:55;;;;;;;30.00;18.60;;;-2.00;33.10;;;;;;4986329;28;20472;-65
2022/12/14 03:50:27;;;;;;;30.47;18.30;;;-2.00;33.00;;;;;;4981871;28;20910;-66
2022/12/14 03:53:00;;;;;;;35.13;20.67;;;-2.10;32.90;;;;;;4987164;28;20457;-65
2022/12/14 03:55:32;;;;;;;31.03;18.73;;;-2.10;33.10;;;;;;4984247;28;20877;-65
2022/12/14 03:58:21;;;;;;;27.20;17.40;;;-2.10;33.10;;;;;;4984555;28;21042;-65
2022/12/14 04:00:53;;;;;;;28.57;17.87;;;-2.10;33.40;;;;;;4985294;28;20488;-66
2022/12/14 04:03:26;;;;;;;33.87;18.80;;;-2.20;33.30;;;;;;4982426;28;20479;-65
2022/12/14 04:06:00;;;;;;;30.70;18.43;;;-2.20;33.40;;;;;;4982612;28;20469;-66
2022/12/14 04:08:39;;;;;;;31.30;19.33;;;-2.20;33.40;;;;;;4985144;28;20516;-65
2022/12/14 04:19:36;;;;;;;28.87;18.93;;;-2.10;33.50;;;;;;4986856;28;20511;-66
2022/12/14 04:22:09;;;;;;;31.70;19.80;;;-2.10;33.60;;;;;;4977733;28;21146;-66
2022/12/14 04:27:32;;;;;;;34.70;18.90;;;-2.10;33.50;;;;;;4983261;28;20825;-64
2022/12/14 04:30:01;;;;;;;27.47;17.03;;;-2.10;33.50;;;;;;4985201;28;20480;-64
2022/12/14 04:35:13;;;;;;;33.10;18.47;;;-2.10;33.30;;;;;;4957923;28;20481;-61
2022/12/14 04:37:45;;;;;;;25.57;16.60;;;-2.10;33.40;;;;;;4964222;28;20469;-60
2022/12/14 04:40:15;;;;;;;33.60;19.13;;;-2.10;34.00;;;;;;4963084;28;20550;-60
2022/12/14 04:42:46;;;;;;;36.03;19.53;;;-2.20;33.40;;;;;;4959161;28;20461;-60
2022/12/14 04:45:17;;;;;;;29.00;18.67;;;-2.10;33.40;;;;;;4965647;28;20477;-60
2022/12/14 04:47:51;;;;;;;32.97;20.17;;;-2.20;33.30;;;;;;4966092;28;20827;-60
2022/12/14 04:50:22;;;;;;;32.97;21.00;;;-2.20;33.60;;;;;;4965867;28;20462;-61
2022/12/14 04:52:55;;;;;;;29.87;18.10;;;-2.20;33.60;;;;;;4965762;28;20489;-61
2022/12/14 04:55:28;;;;;;;28.80;18.93;;;-2.20;33.50;;;;;;4966940;28;20655;-60
2022/12/14 04:57:58;;;;;;;34.23;18.57;;;-2.20;33.40;;;;;;4964819;28;21010;-60
2022/12/14 05:00:26;;;;;;;29.73;19.50;;;-2.20;33.30;;;;;;4965509;28;20462;-61
2022/12/14 05:03:15;;;;;;;31.47;18.07;;;-2.20;33.30;;;;;;4957713;28;20462;-59
2022/12/14 05:05:53;;;;;;;31.20;18.03;;;-2.30;33.70;;;;;;4962253;28;20461;-61
2022/12/14 05:08:29;;;;;;;33.40;20.10;;;-2.30;33.90;;;;;;4961285;28;20465;-61
2022/12/14 05:11:01;;;;;;;28.80;18.67;;;-2.00;34.20;;;;;;4963988;28;20992;-61
2022/12/14 05:13:32;;;;;;;30.37;19.40;;;-2.40;34.10;;;;;;4965734;28;20478;-61
2022/12/14 05:15:59;;;;;;;29.23;19.37;;;-2.30;34.10;;;;;;4965870;28;20561;-61
2022/12/14 05:18:26;;;;;;;33.17;21.80;;;-2.30;34.10;;;;;;4966415;28;20472;-60
2022/12/14 05:20:53;;;;;;;29.97;19.93;;;-2.30;34.20;;;;;;4966039;28;20461;-60
2022/12/14 05:23:21;;;;;;;31.43;20.00;;;-2.30;34.10;;;;;;4966288;28;21036;-61
2022/12/14 05:25:48;;;;;;;26.10;18.60;;;-2.30;34.20;;;;;;4957964;28;20812;-60
2022/12/14 05:28:15;;;;;;;31.77;20.40;;;-2.30;34.20;;;;;;4960769;28;20469;-61
2022/12/14 05:30:42;;;;;;;31.30;19.53;;;-2.30;34.30;;;;;;4961492;28;20474;-61
2022/12/14 05:33:15;;;;;;;34.03;18.50;;;-2.30;34.30;;;;;;4961850;28;20509;-60
2022/12/14 05:35:42;;;;;;;28.97;18.37;;;-2.30;34.40;;;;;;4966394;28;20721;-61
2022/12/14 05:38:09;;;;;;;32.17;19.70;;;-2.30;34.40;;;;;;4958074;28;20468;-60
2022/12/14 05:40:37;;;;;;;39.83;20.97;;;-2.30;34.40;;;;;;4960284;28;20467;-60
2022/12/14 05:43:05;;;;;;;33.03;20.97;;;-2.30;34.50;;;;;;4963448;28;20485;-61
2022/12/14 05:45:32;;;;;;;32.50;20.30;;;-2.30;34.40;;;;;;4964914;28;20469;-61
2022/12/14 05:47:59;;;;;;;35.13;20.07;;;-2.30;34.40;;;;;;4963173;28;20468;-61
2022/12/14 05:50:26;;;;;;;36.57;20.70;;;-2.20;34.30;;;;;;4959994;28;20469;-60
2022/12/14 05:52:54;;;;;;;32.93;21.03;;;-2.20;34.40;;;;;;4964073;28;20564;-60
2022/12/14 05:55:21;;;;;;;33.07;20.10;;;-2.20;34.20;;;;;;4959379;28;20474;-61
2022/12/14 05:57:49;;;;;;;30.37;19.60;;;-2.20;34.10;;;;;;4963626;28;21230;-60
2022/12/14 06:00:16;;;;;;;32.37;19.57;;;-2.20;34.20;;;;;;4959394;28;20469;-60
2022/12/14 06:02:43;;;;;;;35.60;20.40;;;-2.20;34.30;;;;;;4964393;28;20542;-61
2022/12/14 06:05:10;;;;;;;29.97;18.20;;;-2.20;34.40;;;;;;4965514;28;20536;-60
2022/12/14 06:07:36;;;;;;;33.80;21.17;;;-2.20;34.40;;;;;;4963856;28;20470;-60
2022/12/14 06:10:04;;;;;;;34.10;19.70;;;-2.20;34.40;;;;;;4961639;28;20465;-61
2022/12/14 06:12:30;;;;;;;34.63;20.80;;;-2.10;34.50;;;;;;4964210;28;20466;-61
2022/12/14 06:14:58;;;;;;;35.43;20.70;;;-2.20;34.50;;;;;;4960521;28;20866;-62
2022/12/14 06:17:25;;;;;;;33.03;20.87;;;-2.20;34.60;;;;;;4964407;28;20867;-61
2022/12/14 06:19:52;;;;;;;38.53;23.00;;;-2.20;34.70;;;;;;4958462;28;20461;-63
2022/12/14 06:22:19;;;;;;;29.93;19.03;;;-2.20;34.70;;;;;;4960560;28;20457;-60
2022/12/14 06:24:45;;;;;;;38.27;22.30;;;-2.20;34.70;;;;;;4958450;28;20489;-63
2022/12/14 06:27:12;;;;;;;37.87;20.63;;;-2.10;34.80;;;;;;4965900;28;20476;-60
2022/12/14 06:29:39;;;;;;;35.43;21.20;;;-2.20;34.80;;;;;;4966267;28;20457;-60
2022/12/14 06:32:07;;;;;;;35.13;20.40;;;-2.10;34.80;;;;;;4960037;28;20474;-60
2022/12/14 06:34:34;;;;;;;32.40;20.50;;;-2.10;34.80;;;;;;4965324;28;20485;-60
2022/12/14 06:37:00;;;;;;;35.87;22.30;;;-2.10;34.90;;;;;;4965530;28;20477;-60
2022/12/14 06:39:27;;;;;;;36.90;22.03;;;-2.10;34.90;;;;;;4964794;28;20480;-60
2022/12/14 06:41:54;;;;;;;34.40;20.50;;;-2.10;34.90;;;;;;4963761;28;20524;-60
2022/12/14 06:44:21;;;;;;;31.63;20.90;;;-2.10;34.90;;;;;;4960846;28;20493;-60
2022/12/14 06:46:47;;;;;;;34.00;21.77;;;-2.10;35.10;;;;;;4966922;28;20462;-61
2022/12/14 06:49:16;;;;;;;31.93;20.57;;;-2.10;35.20;;;;;;4965221;28;20465;-60
2022/12/14 06:51:43;;;;;;;34.07;21.63;;;-2.10;35.20;;;;;;4964776;28;20989;-60
2022/12/14 06:54:11;;;;;;;36.03;22.27;;;-2.20;35.80;;;;;;4939515;23;20498;-60
2022/12/14 06:56:38;;;;;;;36.70;22.17;;;-2.10;35.50;;;;;;4937155;28;20574;-60
2022/12/14 06:59:07;;;;;;;39.53;23.00;;;-1.90;35.60;;;;;;4941154;28;20477;-60
2022/12/14 07:01:34;;;;;;;33.27;20.10;;;-2.10;35.60;;;;;;4938159;28;20484;-60
2022/12/14 07:04:01;;;;;;;36.67;22.40;;;-2.10;35.60;;;;;;4936487;28;21035;-60
2022/12/14 07:06:33;;;;;;;35.60;21.70;;;-2.10;35.70;;;;;;4938807;28;20463;-60
2022/12/14 07:09:01;;;;;;;36.80;23.07;;;-2.10;35.70;;;;;;4942778;28;20466;-60
2022/12/14 07:11:29;;;;;;;34.33;22.67;;;-1.90;35.80;;;;;;4935992;28;20465;-63
2022/12/14 07:13:56;;;;;;;35.23;21.83;;;-2.10;35.80;;;;;;4944162;28;20490;-62
2022/12/14 07:16:25;;;;;;;35.77;21.80;;;-2.00;35.80;;;;;;4952568;28;20501;-60
2022/12/14 07:18:53;;;;;;;39.80;23.80;;;-2.00;35.90;;;;;;4946492;28;20989;-61
2022/12/14 07:21:21;;;;;;;33.10;20.70;;;-2.00;36.00;;;;;;4950152;28;20473;-61
2022/12/14 07:23:51;;;;;;;37.60;23.07;;;-2.00;36.00;;;;;;4947600;28;20573;-60
2022/12/14 07:26:20;;;;;;;36.43;22.70;;;-2.00;36.00;;;;;;4952676;28;20461;-61
2022/12/14 07:28:47;;;;;;;35.57;22.40;;;-2.00;35.90;;;;;;4948401;28;20919;-61
2022/12/14 07:31:16;;;;;;;40.63;24.00;;;-1.90;35.90;;;;;;4940424;28;20490;-62
2022/12/14 07:33:43;;;;;;;38.30;24.20;;;-1.90;36.10;;;;;;4945353;28;20529;-61
2022/12/14 07:36:12;;;;;;;41.40;24.40;;;-1.90;36.00;;;;;;4940383;28;21167;-61
2022/12/14 07:38:40;;;;;;;35.57;22.23;;;-1.80;35.90;;;;;;4943486;28;20492;-61
2022/12/14 07:41:11;;;;;;;38.33;23.63;;;-1.80;35.90;;;;;;4942406;28;20465;-61
2022/12/14 07:43:38;;;;;;;34.20;22.73;;;-1.80;35.80;;;;;;4946778;28;20496;-61
2022/12/14 07:46:07;;;;;;;40.00;23.63;;;-1.70;36.50;;;;;;4941040;28;20603;-60
2022/12/14 07:48:34;;;;;;;36.97;23.37;;;-1.70;35.90;;;;;;4940986;28;20467;-61
2022/12/14 07:51:03;;;;;;;38.00;22.47;;;-1.70;35.90;;;;;;4941145;28;20478;-60
2022/12/14 07:53:30;;;;;;;39.80;23.10;;;-1.70;35.90;;;;;;4944380;29;20493;-61
2022/12/14 07:56:01;;;;;;;37.70;21.70;;;-1.70;36.00;;;;;;4944915;28;20466;-60
2022/12/14 07:58:29;;;;;;;37.70;22.53;;;-1.60;36.00;;;;;;4945983;28;21053;-61
2022/12/14 08:00:56;;;;;;;35.17;23.23;;;-1.60;35.90;;;;;;4946087;28;20500;-60
2022/12/14 08:03:23;;;;;;;38.10;22.97;;;-1.60;36.00;;;;;;4940706;28;20474;-60
2022/12/14 08:05:49;;;;;;;37.63;21.80;;;-1.50;36.00;;;;;;4945993;28;20463;-60
2022/12/14 08:08:16;;;;;;;38.47;20.90;;;-1.50;36.00;;;;;;4950350;28;20981;-60
2022/12/14 08:10:47;;;;;;;34.83;22.97;;;-1.50;36.00;;;;;;4946488;28;20472;-60
2022/12/14 08:13:14;;;;;;;36.93;23.10;;;-1.50;36.00;;;;;;4946421;28;21054;-60
2022/12/14 08:15:42;;;;;;;38.27;23.60;;;-1.50;36.10;;;;;;4948407;28;20474;-59
2022/12/14 08:18:09;;;;;;;40.33;25.53;;;-1.50;36.20;;;;;;4942663;28;20486;-60
2022/12/14 08:20:36;;;;;;;35.97;23.60;;;-1.50;36.20;;;;;;4945078;28;20458;-60
2022/12/14 08:23:03;;;;;;;36.20;22.73;;;-1.50;36.20;;;;;;4944057;28;20497;-60
2022/12/14 08:25:30;;;;;;;42.13;24.60;;;-1.40;36.30;;;;;;4946300;28;21426;-61
2022/12/14 08:27:56;;;;;;;37.43;22.20;;;-1.40;36.30;;;;;;4948145;28;20469;-61
2022/12/14 08:30:23;;;;;;;34.83;23.70;;;-1.40;36.40;;;;;;4948408;28;20471;-60
2022/12/14 08:32:51;;;;;;;34.03;23.40;;;-1.30;35.90;;;;;;4941846;28;20462;-60
2022/12/14 08:35:18;;;;;;;39.83;24.90;;;-1.30;35.80;;;;;;4943277;29;20464;-60
2022/12/14 08:37:45;;;;;;;40.00;24.83;;;-1.20;35.80;;;;;;4938831;28;20494;-60
2022/12/14 08:40:12;;;;;;;36.47;22.77;;;-1.20;35.60;;;;;;4944555;28;20466;-60
2022/12/14 08:42:39;;;;;;;38.50;22.37;;;-1.20;35.80;;;;;;4947287;28;20463;-60
2022/12/14 08:45:07;;;;;;;39.73;25.67;;;-1.10;36.00;;;;;;4946036;28;20777;-60
2022/12/14 08:47:33;;;;;;;47.10;32.03;;;-1.10;35.80;;;;;;4941570;29;20466;-60
2022/12/14 08:50:02;;;;;;;40.17;26.07;;;-0.90;35.60;;;;;;4945961;28;20463;-61
2022/12/14 08:52:28;;;;;;;36.57;24.57;;;-0.90;35.60;;;;;;4947061;28;20462;-61
2022/12/14 08:54:55;;;;;;;37.60;24.13;;;-0.90;35.40;;;;;;4947135;29;20497;-60
2022/12/14 08:57:22;;;;;;;37.13;22.53;;;-0.90;35.50;;;;;;4946693;29;20869;-60
2022/12/14 08:59:49;;;;;;;36.03;24.50;;;-0.80;35.60;;;;;;4945915;28;20463;-60
2022/12/14 09:02:15;;;;;;;33.13;21.93;;;-0.80;35.50;;;;;;4950673;28;21303;-61
2022/12/14 09:04:42;;;;;;;34.90;21.63;;;-0.80;35.50;;;;;;4946285;28;20490;-60
2022/12/14 09:07:10;;;;;;;39.93;25.70;;;-0.70;35.50;;;;;;4947734;28;21712;-61
2022/12/14 09:09:37;;;;;;;35.70;22.27;;;-0.60;35.50;;;;;;4945402;28;20482;-60
2022/12/14 09:12:05;;;;;;;35.97;23.97;;;-0.60;35.50;;;;;;4949229;28;20473;-60
2022/12/14 09:14:32;;;;;;;34.43;23.63;;;-0.50;35.60;;;;;;4937896;28;20505;-60
2022/12/14 09:16:59;;;;;;;37.80;24.00;;;-0.50;35.30;;;;;;4944799;28;20494;-60
2022/12/14 09:19:26;;;;;;;35.80;21.20;;;-0.50;35.30;;;;;;4945041;28;20493;-60
2022/12/14 09:21:53;;;;;;;37.47;24.50;;;-0.50;34.80;;;;;;4943901;29;20459;-60
2022/12/14 09:24:23;;;;;;;40.50;24.40;;;-0.50;34.90;;;;;;4943558;28;20877;-60
2022/12/14 09:26:50;;;;;;;42.43;23.73;;;-0.50;35.00;;;;;;4944365;29;20463;-60
2022/12/14 09:29:18;;;;;;;36.40;22.80;;;-0.40;35.00;;;;;;4948822;29;20998;-61
2022/12/14 09:31:45;;;;;;;35.97;22.60;;;-0.30;35.10;;;;;;4947927;28;20483;-60
2022/12/14 09:34:12;;;;;;;32.93;25.03;;;-0.30;35.00;;;;;;4943495;29;20492;-61
2022/12/14 09:36:39;;;;;;;40.60;24.10;;;-0.30;35.00;;;;;;4940743;28;20477;-60
2022/12/14 09:39:05;;;;;;;34.90;23.53;;;-0.20;35.00;;;;;;4940071;28;20462;-61
2022/12/14 09:41:50;;;;;;;37.10;24.87;;;-0.10;34.90;;;;;;4948026;28;20914;-61
2022/12/14 09:44:25;;;;;;;36.03;22.53;;;-0.10;34.90;;;;;;4945017;28;20576;-61
2022/12/14 09:47:00;;;;;;;37.23;23.43;;;-0.10;34.90;;;;;;4945078;28;20466;-61
2022/12/14 09:49:30;;;;;;;31.27;21.47;;;0.00;34.70;;;;;;4943605;28;20470;-61
2022/12/14 09:52:00;;;;;;;37.40;23.73;;;0.00;34.30;;;;;;4943033;28;20750;-61
2022/12/14 09:54:30;;;;;;;32.13;21.73;;;0.00;34.30;;;;;;4943890;28;20498;-61
2022/12/14 09:57:04;;;;;;;31.73;23.23;;;0.00;34.30;;;;;;4942593;28;20801;-61
2022/12/14 09:59:33;;;;;;;29.70;22.50;;;0.00;34.40;;;;;;4942639;28;20457;-61
2022/12/14 10:02:15;;;;;;;39.33;24.20;;;0.10;34.50;;;;;;4941579;28;20479;-61
2022/12/14 10:04:53;;;;;;;32.37;21.80;;;0.10;34.30;;;;;;4944507;28;20486;-60
2022/12/14 10:07:23;;;;;;;34.37;23.67;;;0.20;34.40;;;;;;4943857;28;20458;-61
2022/12/14 10:09:56;;;;;;;32.50;22.33;;;0.30;34.10;;;;;;4947141;28;20474;-61
2022/12/14 10:12:38;;;;;;;33.37;22.23;;;0.20;34.20;;;;;;4939749;28;20469;-60
2022/12/14 10:15:17;;;;;;;37.10;23.90;;;0.20;34.20;;;;;;4943287;28;20470;-62
2022/12/14 10:18:04;;;;;;;33.93;24.20;;;0.20;34.20;;;;;;4940674;28;20584;-61
2022/12/14 10:20:40;;;;;;;33.17;23.63;;;0.20;34.50;;;;;;4941806;28;20537;-61
2022/12/14 10:23:12;;;;;;;34.30;24.07;;;0.20;34.40;;;;;;4944516;28;20998;-61
2022/12/14 10:25:40;;;;;;;34.57;23.57;;;0.20;34.60;;;;;;4943586;28;20461;-61
2022/12/14 10:28:15;;;;;;;36.60;24.63;;;0.20;34.70;;;;;;4943935;28;20466;-61
2022/12/14 10:30:43;;;;;;;35.87;23.57;;;0.30;34.80;;;;;;4939385;28;20482;-60
2022/12/14 10:33:21;;;;;;;40.03;25.90;;;0.40;34.80;;;;;;4944496;28;20478;-60
2022/12/14 10:35:51;;;;;;;32.50;23.10;;;0.40;35.00;;;;;;4944041;28;20471;-61
2022/12/14 10:38:24;;;;;;;38.80;25.07;;;0.50;35.10;;;;;;4944086;28;20483;-60
2022/12/14 10:40:57;;;;;;;38.57;24.37;;;0.50;35.00;;;;;;4946538;28;20466;-60
2022/12/14 10:43:39;;;;;;;33.17;23.63;;;0.60;34.80;;;;;;4945292;28;20502;-60
2022/12/14 10:46:18;;;;;;;33.30;23.07;;;0.60;34.70;;;;;;4943463;28;20471;-60
2022/12/14 10:48:54;;;;;;;42.87;28.80;;;0.60;34.80;;;;;;4949917;28;20466;-61
2022/12/14 10:51:27;;;;;;;42.50;28.30;;;0.60;34.90;;;;;;4950802;28;20493;-60
2022/12/14 10:53:58;;;;;;;39.40;25.53;;;0.60;35.00;;;;;;4949653;28;20494;-60
2022/12/14 10:56:30;;;;;;;42.03;26.40;;;0.70;34.90;;;;;;4948706;29;20466;-60
2022/12/14 10:59:25;;;;;;;38.83;25.10;;;0.80;34.90;;;;;;4951549;28;21050;-60
2022/12/14 11:01:54;;;;;;;36.73;24.30;;;0.80;35.00;;;;;;4948175;28;20486;-61
2022/12/14 11:04:29;;;;;;;32.20;23.43;;;0.90;35.00;;;;;;4948341;29;20544;-61
2022/12/14 11:06:57;;;;;;;34.47;23.40;;;0.90;35.10;;;;;;4944675;28;20493;-61
2022/12/14 11:09:24;;;;;;;31.77;22.67;;;1.00;34.80;;;;;;4945144;28;20463;-61
2022/12/14 11:11:57;;;;;;;35.80;22.30;;;1.10;35.00;;;;;;4950516;28;20466;-60
2022/12/14 11:14:27;;;;;;;37.70;22.90;;;1.10;34.90;;;;;;4946530;28;20487;-61
2022/12/14 11:16:53;;;;;;;32.03;22.20;;;1.10;35.50;;;;;;4943676;28;22092;-61
2022/12/14 11:19:22;;;;;;;31.10;22.90;;;1.10;34.90;;;;;;4944467;28;20490;-61
2022/12/14 11:21:51;;;;;;;33.10;22.67;;;1.20;34.90;;;;;;4951227;28;20468;-61
2022/12/14 11:24:23;;;;;;;29.37;21.30;;;1.20;34.90;;;;;;4947337;28;20489;-60
2022/12/14 11:26:52;;;;;;;28.50;22.23;;;1.20;34.80;;;;;;4949283;28;20531;-61
2022/12/14 11:29:25;;;;;;;31.43;21.23;;;1.20;34.90;;;;;;4944917;28;20549;-61
2022/12/14 11:31:53;;;;;;;31.87;21.50;;;1.20;34.90;;;;;;4944943;28;20837;-64
2022/12/14 11:34:27;;;;;;;38.40;22.70;;;1.20;34.90;;;;;;4946707;28;20510;-60
2022/12/14 11:36:54;;;;;;;31.17;22.00;;;1.30;34.80;;;;;;4944285;28;20457;-60
2022/12/14 11:39:23;;;;;;;31.53;23.10;;;1.30;34.80;;;;;;4949087;28;20482;-60
2022/12/14 11:41:51;;;;;;;33.90;23.87;;;1.20;34.90;;;;;;4950534;28;20834;-61
2022/12/14 11:44:25;;;;;;;37.33;25.20;;;1.30;35.00;;;;;;4948970;29;20482;-64
2022/12/14 11:47:01;;;;;;;34.40;24.23;;;1.20;35.60;;;;;;4948158;28;20978;-61
2022/12/14 11:49:29;;;;;;;35.17;24.47;;;1.30;35.20;;;;;;4943474;28;20466;-61
2022/12/14 11:52:02;;;;;;;31.57;22.90;;;1.30;35.20;;;;;;4944739;28;20501;-62
2022/12/14 11:54:29;;;;;;;33.33;21.80;;;1.30;35.00;;;;;;4946414;28;20482;-63
2022/12/14 11:57:01;;;;;;;29.50;20.43;;;1.30;35.00;;;;;;4947925;28;20467;-64
2022/12/14 11:59:32;;;;;;;28.83;19.43;;;1.40;35.00;;;;;;4945945;28;20479;-63
2022/12/14 12:02:16;;;;;;;30.10;22.07;;;1.40;35.20;;;;;;4940393;28;20479;-61
2022/12/14 12:04:46;;;;;;;26.17;19.23;;;1.50;35.30;;;;;;4943817;29;20481;-61
2022/12/14 12:07:20;;;;;;;25.23;18.60;;;1.50;35.30;;;;;;4941960;28;20593;-62
2022/12/14 12:09:47;;;;;;;25.40;19.03;;;1.50;35.10;;;;;;4946195;28;20467;-61
2022/12/14 12:12:20;;;;;;;26.57;19.27;;;1.50;35.20;;;;;;4946957;28;20466;-64
2022/12/14 12:14:47;;;;;;;30.60;21.87;;;1.50;35.30;;;;;;4950400;28;20491;-61
2022/12/14 12:17:19;;;;;;;30.40;22.43;;;1.50;35.50;;;;;;4940964;28;20466;-63
2022/12/14 12:19:50;;;;;;;26.20;19.07;;;1.50;35.50;;;;;;4945272;28;20482;-61
2022/12/14 12:22:19;;;;;;;28.17;19.40;;;1.50;35.70;;;;;;4946417;28;21035;-62
2022/12/14 12:24:53;;;;;;;31.67;20.17;;;1.60;35.60;;;;;;4947952;28;21428;-61
2022/12/14 12:27:20;;;;;;;30.77;19.07;;;1.60;35.70;;;;;;4947571;28;20473;-61
2022/12/14 12:29:52;;;;;;;29.27;20.70;;;1.60;35.70;;;;;;4945837;28;20466;-61
2022/12/14 12:32:26;;;;;;;30.17;20.93;;;1.70;35.70;;;;;;4943386;28;20479;-62
2022/12/14 12:34:58;;;;;;;31.57;21.13;;;1.80;35.60;;;;;;4944969;28;20483;-62
2022/12/14 12:37:32;;;;;;;30.30;23.43;;;1.80;35.40;;;;;;4949247;28;20468;-61
2022/12/14 12:40:03;;;;;;;31.33;22.10;;;1.90;35.60;;;;;;4950846;28;20568;-61
2022/12/14 12:42:40;;;;;;;34.03;22.27;;;1.90;35.50;;;;;;4947802;28;20556;-61
2022/12/14 12:45:16;;;;;;;32.50;21.30;;;2.00;35.60;;;;;;4942424;29;20470;-61
2022/12/14 12:47:48;;;;;;;30.70;21.73;;;2.00;35.50;;;;;;4945872;28;20470;-60
2022/12/14 12:50:17;;;;;;;27.67;20.70;;;2.10;35.30;;;;;;4941566;28;20466;-61
2022/12/14 12:52:53;;;;;;;26.50;19.80;;;2.10;35.20;;;;;;4947723;28;20477;-60
2022/12/14 12:55:23;;;;;;;31.20;20.83;;;2.10;35.10;;;;;;4947388;28;20471;-59
2022/12/14 12:57:53;;;;;;;29.80;21.10;;;2.10;35.10;;;;;;4944982;28;20467;-60